sensor_id;sensor_type;location;lat;lon;timestamp;P1;durP1;ratioP1;P2;durP2;ratioP2
64623;SDS011;51031;50.912;9.242;2022-09-09T00:00:16;35.88;;;23.98;;
64623;SDS011;51031;50.912;9.242;2022-09-09T00:00:33;30.77;;;19.73;;
64623;SDS011;51031;50.912;9.242;2022-09-09T00:00:56;19.73;;;11.85;;
64623;SDS011;51031;50.912;9.242;2022-09-09T00:01:23;29.60;;;19.17;;
64623;SDS011;51031;50.912;9.242;2022-09-09T00:01:50;31.33;;;21.52;;
64623;SDS011;51031;50.912;9.242;2022-09-09T00:02:10;21.67;;;13.93;;
64623;SDS011;51031;50.912;9.242;2022-09-09T00:02:33;22.05;;;14.00;;
64623;SDS011;51031;50.912;9.242;2022-09-09T00:02:51;30.90;;;21.17;;
64623;SDS011;51031;50.912;9.242;2022-09-09T00:03:14;21.90;;;13.88;;
64623;SDS011;51031;50.912;9.242;2022-09-09T00:03:36;11.32;;;5.38;;
64623;SDS011;51031;50.912;9.242;2022-09-09T00:04:02;42.35;;;29.50;;
64623;SDS011;51031;50.912;9.242;2022-09-09T00:04:26;61.30;;;42.15;;
64623;SDS011;51031;50.912;9.242;2022-09-09T00:04:43;65.13;;;44.50;;
64623;SDS011;51031;50.912;9.242;2022-09-09T00:05:09;28.17;;;18.55;;
64623;SDS011;51031;50.912;9.242;2022-09-09T00:05:35;9.75;;;4.63;;
64623;SDS011;51031;50.912;9.242;2022-09-09T00:05:58;18.30;;;10.90;;
64623;SDS011;51031;50.912;9.242;2022-09-09T00:06:24;29.50;;;19.48;;
64623;SDS011;51031;50.912;9.242;2022-09-09T00:06:46;27.90;;;18.85;;
64623;SDS011;51031;50.912;9.242;2022-09-09T00:07:10;41.38;;;27.98;;
64623;SDS011;51031;50.912;9.242;2022-09-09T00:07:37;41.53;;;29.00;;
64623;SDS011;51031;50.912;9.242;2022-09-09T00:07:59;19.30;;;12.07;;
64623;SDS011;51031;50.912;9.242;2022-09-09T00:08:20;13.38;;;7.60;;
64623;SDS011;51031;50.912;9.242;2022-09-09T00:08:42;13.77;;;7.28;;
64623;SDS011;51031;50.912;9.242;2022-09-09T00:09:07;15.70;;;9.52;;
64623;SDS011;51031;50.912;9.242;2022-09-09T00:09:27;13.68;;;7.28;;
64623;SDS011;51031;50.912;9.242;2022-09-09T00:09:47;13.23;;;6.40;;
64623;SDS011;51031;50.912;9.242;2022-09-09T00:10:09;7.53;;;2.55;;
64623;SDS011;51031;50.912;9.242;2022-09-09T00:10:32;22.15;;;13.55;;
64623;SDS011;51031;50.912;9.242;2022-09-09T00:10:52;14.88;;;8.43;;
64623;SDS011;51031;50.912;9.242;2022-09-09T00:11:15;19.85;;;11.15;;
64623;SDS011;51031;50.912;9.242;2022-09-09T00:11:39;13.68;;;7.75;;
64623;SDS011;51031;50.912;9.242;2022-09-09T00:11:58;8.65;;;4.13;;
64623;SDS011;51031;50.912;9.242;2022-09-09T00:12:22;6.90;;;3.08;;
64623;SDS011;51031;50.912;9.242;2022-09-09T00:12:46;9.55;;;4.68;;
64623;SDS011;51031;50.912;9.242;2022-09-09T00:13:13;20.58;;;11.93;;
64623;SDS011;51031;50.912;9.242;2022-09-09T00:13:34;12.32;;;6.68;;
64623;SDS011;51031;50.912;9.242;2022-09-09T00:13:54;14.02;;;8.07;;
64623;SDS011;51031;50.912;9.242;2022-09-09T00:14:16;25.02;;;15.55;;
64623;SDS011;51031;50.912;9.242;2022-09-09T00:14:42;26.55;;;17.48;;
64623;SDS011;51031;50.912;9.242;2022-09-09T00:15:05;46.60;;;33.08;;
64623;SDS011;51031;50.912;9.242;2022-09-09T00:15:28;34.20;;;23.00;;
64623;SDS011;51031;50.912;9.242;2022-09-09T00:15:54;27.77;;;17.55;;
64623;SDS011;51031;50.912;9.242;2022-09-09T00:16:15;14.50;;;8.05;;
64623;SDS011;51031;50.912;9.242;2022-09-09T00:16:35;11.73;;;6.05;;
64623;SDS011;51031;50.912;9.242;2022-09-09T00:16:55;7.88;;;3.55;;
64623;SDS011;51031;50.912;9.242;2022-09-09T00:17:14;6.60;;;2.75;;
64623;SDS011;51031;50.912;9.242;2022-09-09T00:17:38;7.40;;;3.17;;
64623;SDS011;51031;50.912;9.242;2022-09-09T00:18:07;15.02;;;8.43;;
64623;SDS011;51031;50.912;9.242;2022-09-09T00:18:31;8.38;;;2.72;;
64623;SDS011;51031;50.912;9.242;2022-09-09T00:19:04;36.60;;;24.50;;
64623;SDS011;51031;50.912;9.242;2022-09-09T00:19:24;40.80;;;27.42;;
64623;SDS011;51031;50.912;9.242;2022-09-09T00:19:46;28.83;;;17.83;;
64623;SDS011;51031;50.912;9.242;2022-09-09T00:20:10;48.08;;;32.67;;
64623;SDS011;51031;50.912;9.242;2022-09-09T00:20:29;30.75;;;19.60;;
64623;SDS011;51031;50.912;9.242;2022-09-09T00:20:53;17.67;;;10.15;;
64623;SDS011;51031;50.912;9.242;2022-09-09T00:21:13;15.60;;;8.68;;
64623;SDS011;51031;50.912;9.242;2022-09-09T00:21:31;7.63;;;2.47;;
64623;SDS011;51031;50.912;9.242;2022-09-09T00:21:53;8.05;;;3.60;;
64623;SDS011;51031;50.912;9.242;2022-09-09T00:22:17;10.93;;;5.82;;
64623;SDS011;51031;50.912;9.242;2022-09-09T00:22:34;18.48;;;10.40;;
64623;SDS011;51031;50.912;9.242;2022-09-09T00:22:53;22.65;;;13.63;;
64623;SDS011;51031;50.912;9.242;2022-09-09T00:23:16;34.75;;;22.25;;
64623;SDS011;51031;50.912;9.242;2022-09-09T00:23:43;33.50;;;23.35;;
64623;SDS011;51031;50.912;9.242;2022-09-09T00:24:08;32.78;;;22.27;;
64623;SDS011;51031;50.912;9.242;2022-09-09T00:24:29;23.55;;;15.13;;
64623;SDS011;51031;50.912;9.242;2022-09-09T00:24:52;11.45;;;5.07;;
64623;SDS011;51031;50.912;9.242;2022-09-09T00:25:11;27.67;;;18.23;;
64623;SDS011;51031;50.912;9.242;2022-09-09T00:25:33;23.95;;;15.38;;
64623;SDS011;51031;50.912;9.242;2022-09-09T00:25:54;30.92;;;20.35;;
64623;SDS011;51031;50.912;9.242;2022-09-09T00:26:19;25.75;;;16.58;;
64623;SDS011;51031;50.912;9.242;2022-09-09T00:26:40;31.40;;;21.25;;
64623;SDS011;51031;50.912;9.242;2022-09-09T00:27:02;8.73;;;3.10;;
64623;SDS011;51031;50.912;9.242;2022-09-09T00:27:25;9.68;;;4.20;;
64623;SDS011;51031;50.912;9.242;2022-09-09T00:27:46;18.42;;;10.98;;
64623;SDS011;51031;50.912;9.242;2022-09-09T00:28:04;21.77;;;13.10;;
64623;SDS011;51031;50.912;9.242;2022-09-09T00:28:29;11.05;;;5.50;;
64623;SDS011;51031;50.912;9.242;2022-09-09T00:28:50;11.05;;;5.70;;
64623;SDS011;51031;50.912;9.242;2022-09-09T00:29:13;20.42;;;13.10;;
64623;SDS011;51031;50.912;9.242;2022-09-09T00:29:38;24.15;;;15.25;;
64623;SDS011;51031;50.912;9.242;2022-09-09T00:30:12;24.27;;;16.05;;
64623;SDS011;51031;50.912;9.242;2022-09-09T00:30:32;11.80;;;6.18;;
64623;SDS011;51031;50.912;9.242;2022-09-09T00:30:50;21.40;;;12.98;;
64623;SDS011;51031;50.912;9.242;2022-09-09T00:31:09;27.45;;;17.65;;
64623;SDS011;51031;50.912;9.242;2022-09-09T00:31:28;26.70;;;17.10;;
64623;SDS011;51031;50.912;9.242;2022-09-09T00:31:45;22.90;;;14.63;;
64623;SDS011;51031;50.912;9.242;2022-09-09T00:32:07;22.88;;;15.15;;
64623;SDS011;51031;50.912;9.242;2022-09-09T00:32:29;23.75;;;14.95;;
64623;SDS011;51031;50.912;9.242;2022-09-09T00:32:49;7.78;;;3.40;;
64623;SDS011;51031;50.912;9.242;2022-09-09T00:33:09;13.15;;;6.65;;
64623;SDS011;51031;50.912;9.242;2022-09-09T00:33:26;33.78;;;21.63;;
64623;SDS011;51031;50.912;9.242;2022-09-09T00:33:43;25.33;;;16.80;;
64623;SDS011;51031;50.912;9.242;2022-09-09T00:34:00;14.17;;;7.73;;
64623;SDS011;51031;50.912;9.242;2022-09-09T00:34:26;8.00;;;3.15;;
64623;SDS011;51031;50.912;9.242;2022-09-09T00:34:46;8.70;;;3.67;;
64623;SDS011;51031;50.912;9.242;2022-09-09T00:35:10;8.05;;;3.25;;
64623;SDS011;51031;50.912;9.242;2022-09-09T00:35:33;13.75;;;7.63;;
64623;SDS011;51031;50.912;9.242;2022-09-09T00:35:53;11.85;;;6.25;;
64623;SDS011;51031;50.912;9.242;2022-09-09T00:36:13;26.20;;;17.33;;
64623;SDS011;51031;50.912;9.242;2022-09-09T00:36:31;40.00;;;28.00;;
64623;SDS011;51031;50.912;9.242;2022-09-09T00:36:49;39.05;;;26.88;;
64623;SDS011;51031;50.912;9.242;2022-09-09T00:37:08;17.17;;;9.32;;
64623;SDS011;51031;50.912;9.242;2022-09-09T00:37:24;7.10;;;2.10;;
64623;SDS011;51031;50.912;9.242;2022-09-09T00:37:42;6.47;;;2.33;;
64623;SDS011;51031;50.912;9.242;2022-09-09T00:38:00;7.47;;;2.75;;
64623;SDS011;51031;50.912;9.242;2022-09-09T00:38:23;13.05;;;6.28;;
64623;SDS011;51031;50.912;9.242;2022-09-09T00:38:42;7.90;;;3.13;;
64623;SDS011;51031;50.912;9.242;2022-09-09T00:39:03;4.90;;;1.88;;
64623;SDS011;51031;50.912;9.242;2022-09-09T00:39:23;5.63;;;1.65;;
64623;SDS011;51031;50.912;9.242;2022-09-09T00:39:44;5.65;;;1.42;;
64623;SDS011;51031;50.912;9.242;2022-09-09T00:40:05;14.27;;;7.63;;
64623;SDS011;51031;50.912;9.242;2022-09-09T00:40:38;24.65;;;15.88;;
64623;SDS011;51031;50.912;9.242;2022-09-09T00:41:03;38.45;;;27.30;;
64623;SDS011;51031;50.912;9.242;2022-09-09T00:41:30;29.95;;;20.05;;
64623;SDS011;51031;50.912;9.242;2022-09-09T00:42:03;30.77;;;20.48;;
64623;SDS011;51031;50.912;9.242;2022-09-09T00:42:31;7.97;;;3.28;;
64623;SDS011;51031;50.912;9.242;2022-09-09T00:43:01;12.00;;;6.40;;
64623;SDS011;51031;50.912;9.242;2022-09-09T00:43:30;14.98;;;8.55;;
64623;SDS011;51031;50.912;9.242;2022-09-09T00:43:49;13.07;;;7.20;;
64623;SDS011;51031;50.912;9.242;2022-09-09T00:44:16;15.25;;;9.10;;
64623;SDS011;51031;50.912;9.242;2022-09-09T00:44:48;20.17;;;12.80;;
64623;SDS011;51031;50.912;9.242;2022-09-09T00:45:12;20.40;;;12.40;;
64623;SDS011;51031;50.912;9.242;2022-09-09T00:45:47;5.22;;;1.83;;
64623;SDS011;51031;50.912;9.242;2022-09-09T00:47:17;8.23;;;3.30;;
64623;SDS011;51031;50.912;9.242;2022-09-09T00:47:49;10.48;;;5.82;;
64623;SDS011;51031;50.912;9.242;2022-09-09T00:48:06;5.20;;;1.60;;
64623;SDS011;51031;50.912;9.242;2022-09-09T00:48:27;11.00;;;5.90;;
64623;SDS011;51031;50.912;9.242;2022-09-09T00:48:51;14.65;;;8.70;;
64623;SDS011;51031;50.912;9.242;2022-09-09T00:49:14;12.10;;;7.03;;
64623;SDS011;51031;50.912;9.242;2022-09-09T00:49:42;26.40;;;16.35;;
64623;SDS011;51031;50.912;9.242;2022-09-09T00:50:09;15.23;;;9.07;;
64623;SDS011;51031;50.912;9.242;2022-09-09T00:50:43;6.47;;;2.13;;
64623;SDS011;51031;50.912;9.242;2022-09-09T00:51:05;14.75;;;8.57;;
64623;SDS011;51031;50.912;9.242;2022-09-09T00:51:30;20.80;;;12.73;;
64623;SDS011;51031;50.912;9.242;2022-09-09T00:51:59;19.52;;;11.55;;
64623;SDS011;51031;50.912;9.242;2022-09-09T00:52:23;27.40;;;17.48;;
64623;SDS011;51031;50.912;9.242;2022-09-09T00:52:46;12.23;;;6.63;;
64623;SDS011;51031;50.912;9.242;2022-09-09T00:53:12;10.82;;;5.10;;
64623;SDS011;51031;50.912;9.242;2022-09-09T00:53:56;14.73;;;8.48;;
64623;SDS011;51031;50.912;9.242;2022-09-09T00:54:34;15.57;;;8.07;;
64623;SDS011;51031;50.912;9.242;2022-09-09T00:54:57;25.45;;;15.93;;
64623;SDS011;51031;50.912;9.242;2022-09-09T00:55:24;12.90;;;6.05;;
64623;SDS011;51031;50.912;9.242;2022-09-09T00:55:49;8.00;;;3.10;;
64623;SDS011;51031;50.912;9.242;2022-09-09T00:56:12;17.08;;;9.68;;
64623;SDS011;51031;50.912;9.242;2022-09-09T00:56:29;23.67;;;15.60;;
64623;SDS011;51031;50.912;9.242;2022-09-09T00:56:53;13.82;;;8.32;;
64623;SDS011;51031;50.912;9.242;2022-09-09T00:57:22;14.15;;;7.80;;
64623;SDS011;51031;50.912;9.242;2022-09-09T00:57:42;11.35;;;5.68;;
64623;SDS011;51031;50.912;9.242;2022-09-09T00:57:58;8.10;;;4.03;;
64623;SDS011;51031;50.912;9.242;2022-09-09T00:58:15;12.07;;;6.45;;
64623;SDS011;51031;50.912;9.242;2022-09-09T00:58:31;12.13;;;6.30;;
64623;SDS011;51031;50.912;9.242;2022-09-09T00:58:48;9.43;;;4.78;;
64623;SDS011;51031;50.912;9.242;2022-09-09T00:59:13;4.22;;;1.27;;
64623;SDS011;51031;50.912;9.242;2022-09-09T00:59:43;11.75;;;5.95;;
64623;SDS011;51031;50.912;9.242;2022-09-09T01:00:19;21.92;;;12.82;;
64623;SDS011;51031;50.912;9.242;2022-09-09T01:00:39;9.68;;;4.47;;
64623;SDS011;51031;50.912;9.242;2022-09-09T01:01:01;10.88;;;4.30;;
64623;SDS011;51031;50.912;9.242;2022-09-09T01:01:24;18.00;;;11.70;;
64623;SDS011;51031;50.912;9.242;2022-09-09T01:01:43;16.55;;;10.10;;
64623;SDS011;51031;50.912;9.242;2022-09-09T01:01:59;14.43;;;7.82;;
64623;SDS011;51031;50.912;9.242;2022-09-09T01:02:21;21.08;;;12.10;;
64623;SDS011;51031;50.912;9.242;2022-09-09T01:02:44;10.25;;;5.03;;
64623;SDS011;51031;50.912;9.242;2022-09-09T01:03:13;7.20;;;3.60;;
64623;SDS011;51031;50.912;9.242;2022-09-09T01:03:39;10.45;;;5.38;;
64623;SDS011;51031;50.912;9.242;2022-09-09T01:04:03;7.75;;;2.15;;
64623;SDS011;51031;50.912;9.242;2022-09-09T01:04:26;8.80;;;3.03;;
64623;SDS011;51031;50.912;9.242;2022-09-09T01:04:46;8.70;;;4.03;;
64623;SDS011;51031;50.912;9.242;2022-09-09T01:05:04;10.15;;;5.57;;
64623;SDS011;51031;50.912;9.242;2022-09-09T01:05:30;15.48;;;9.00;;
64623;SDS011;51031;50.912;9.242;2022-09-09T01:05:54;18.35;;;11.30;;
64623;SDS011;51031;50.912;9.242;2022-09-09T01:06:20;19.53;;;12.27;;
64623;SDS011;51031;50.912;9.242;2022-09-09T01:06:42;14.57;;;8.65;;
64623;SDS011;51031;50.912;9.242;2022-09-09T01:07:08;12.48;;;6.82;;
64623;SDS011;51031;50.912;9.242;2022-09-09T01:07:32;13.55;;;6.35;;
64623;SDS011;51031;50.912;9.242;2022-09-09T01:07:48;17.92;;;9.90;;
64623;SDS011;51031;50.912;9.242;2022-09-09T01:08:08;23.45;;;14.35;;
64623;SDS011;51031;50.912;9.242;2022-09-09T01:09:26;16.08;;;9.45;;
64623;SDS011;51031;50.912;9.242;2022-09-09T01:09:50;23.00;;;15.00;;
64623;SDS011;51031;50.912;9.242;2022-09-09T01:10:13;33.00;;;22.23;;
64623;SDS011;51031;50.912;9.242;2022-09-09T01:10:43;31.88;;;21.55;;
64623;SDS011;51031;50.912;9.242;2022-09-09T01:11:06;14.52;;;8.45;;
64623;SDS011;51031;50.912;9.242;2022-09-09T01:11:26;13.65;;;7.90;;
64623;SDS011;51031;50.912;9.242;2022-09-09T01:11:52;20.15;;;12.40;;
64623;SDS011;51031;50.912;9.242;2022-09-09T01:12:23;19.58;;;11.57;;
64623;SDS011;51031;50.912;9.242;2022-09-09T01:12:44;28.55;;;18.80;;
64623;SDS011;51031;50.912;9.242;2022-09-09T01:13:08;21.58;;;13.55;;
64623;SDS011;51031;50.912;9.242;2022-09-09T01:13:31;16.77;;;8.60;;
64623;SDS011;51031;50.912;9.242;2022-09-09T01:13:55;14.18;;;6.82;;
64623;SDS011;51031;50.912;9.242;2022-09-09T01:14:24;25.85;;;15.60;;
64623;SDS011;51031;50.912;9.242;2022-09-09T01:14:48;11.43;;;6.47;;
64623;SDS011;51031;50.912;9.242;2022-09-09T01:15:09;11.43;;;6.70;;
64623;SDS011;51031;50.912;9.242;2022-09-09T01:15:32;18.33;;;10.82;;
64623;SDS011;51031;50.912;9.242;2022-09-09T01:15:51;20.85;;;12.85;;
64623;SDS011;51031;50.912;9.242;2022-09-09T01:16:10;14.75;;;8.75;;
64623;SDS011;51031;50.912;9.242;2022-09-09T01:16:27;6.53;;;2.55;;
64623;SDS011;51031;50.912;9.242;2022-09-09T01:16:45;5.60;;;2.45;;
64623;SDS011;51031;50.912;9.242;2022-09-09T01:17:04;17.43;;;11.13;;
64623;SDS011;51031;50.912;9.242;2022-09-09T01:17:28;11.82;;;6.55;;
64623;SDS011;51031;50.912;9.242;2022-09-09T01:17:59;12.93;;;6.20;;
64623;SDS011;51031;50.912;9.242;2022-09-09T01:18:19;16.95;;;9.30;;
64623;SDS011;51031;50.912;9.242;2022-09-09T01:18:39;11.73;;;6.22;;
64623;SDS011;51031;50.912;9.242;2022-09-09T01:18:59;9.70;;;5.97;;
64623;SDS011;51031;50.912;9.242;2022-09-09T01:19:18;7.32;;;3.22;;
64623;SDS011;51031;50.912;9.242;2022-09-09T01:19:45;14.13;;;7.88;;
64623;SDS011;51031;50.912;9.242;2022-09-09T01:20:13;24.33;;;15.95;;
64623;SDS011;51031;50.912;9.242;2022-09-09T01:20:38;21.35;;;13.23;;
64623;SDS011;51031;50.912;9.242;2022-09-09T01:21:03;10.88;;;4.68;;
64623;SDS011;51031;50.912;9.242;2022-09-09T01:21:25;9.00;;;3.63;;
64623;SDS011;51031;50.912;9.242;2022-09-09T01:21:50;25.48;;;15.80;;
64623;SDS011;51031;50.912;9.242;2022-09-09T01:22:15;17.48;;;10.43;;
64623;SDS011;51031;50.912;9.242;2022-09-09T01:22:44;10.45;;;5.40;;
64623;SDS011;51031;50.912;9.242;2022-09-09T01:23:18;18.08;;;10.68;;
64623;SDS011;51031;50.912;9.242;2022-09-09T01:24:16;14.67;;;8.87;;
64623;SDS011;51031;50.912;9.242;2022-09-09T01:25:01;22.77;;;14.18;;
64623;SDS011;51031;50.912;9.242;2022-09-09T01:26:02;18.42;;;11.02;;
64623;SDS011;51031;50.912;9.242;2022-09-09T01:26:28;17.40;;;10.70;;
64623;SDS011;51031;50.912;9.242;2022-09-09T01:26:51;17.42;;;10.68;;
64623;SDS011;51031;50.912;9.242;2022-09-09T01:27:13;8.60;;;4.20;;
64623;SDS011;51031;50.912;9.242;2022-09-09T01:27:31;9.32;;;4.20;;
64623;SDS011;51031;50.912;9.242;2022-09-09T01:27:49;8.95;;;3.70;;
64623;SDS011;51031;50.912;9.242;2022-09-09T01:28:10;8.95;;;3.55;;
64623;SDS011;51031;50.912;9.242;2022-09-09T01:28:30;10.60;;;5.57;;
64623;SDS011;51031;50.912;9.242;2022-09-09T01:28:53;10.90;;;5.30;;
64623;SDS011;51031;50.912;9.242;2022-09-09T01:29:16;13.27;;;6.75;;
64623;SDS011;51031;50.912;9.242;2022-09-09T01:29:35;9.48;;;3.67;;
64623;SDS011;51031;50.912;9.242;2022-09-09T01:29:51;10.18;;;3.88;;
64623;SDS011;51031;50.912;9.242;2022-09-09T01:30:09;17.77;;;11.35;;
64623;SDS011;51031;50.912;9.242;2022-09-09T01:30:26;20.33;;;13.15;;
64623;SDS011;51031;50.912;9.242;2022-09-09T01:30:43;10.98;;;5.63;;
64623;SDS011;51031;50.912;9.242;2022-09-09T01:31:03;10.37;;;5.37;;
64623;SDS011;51031;50.912;9.242;2022-09-09T01:31:28;23.05;;;15.05;;
64623;SDS011;51031;50.912;9.242;2022-09-09T01:31:52;16.02;;;10.05;;
64623;SDS011;51031;50.912;9.242;2022-09-09T01:32:57;5.32;;;1.48;;
64623;SDS011;51031;50.912;9.242;2022-09-09T01:33:16;5.65;;;2.00;;
64623;SDS011;51031;50.912;9.242;2022-09-09T01:33:33;9.60;;;4.22;;
64623;SDS011;51031;50.912;9.242;2022-09-09T01:33:49;15.30;;;7.83;;
64623;SDS011;51031;50.912;9.242;2022-09-09T01:34:08;11.70;;;5.65;;
64623;SDS011;51031;50.912;9.242;2022-09-09T01:34:31;9.98;;;3.50;;
64623;SDS011;51031;50.912;9.242;2022-09-09T01:34:50;8.57;;;2.85;;
64623;SDS011;51031;50.912;9.242;2022-09-09T01:35:08;5.65;;;2.00;;
64623;SDS011;51031;50.912;9.242;2022-09-09T01:35:31;13.93;;;8.70;;
64623;SDS011;51031;50.912;9.242;2022-09-09T01:35:53;18.30;;;11.65;;
64623;SDS011;51031;50.912;9.242;2022-09-09T01:36:24;5.47;;;1.40;;
64623;SDS011;51031;50.912;9.242;2022-09-09T01:36:46;13.43;;;7.63;;
64623;SDS011;51031;50.912;9.242;2022-09-09T01:37:07;25.92;;;16.70;;
64623;SDS011;51031;50.912;9.242;2022-09-09T01:37:25;15.93;;;9.10;;
64623;SDS011;51031;50.912;9.242;2022-09-09T01:37:41;10.75;;;5.03;;
64623;SDS011;51031;50.912;9.242;2022-09-09T01:37:58;17.13;;;10.50;;
64623;SDS011;51031;50.912;9.242;2022-09-09T01:38:14;12.77;;;7.28;;
64623;SDS011;51031;50.912;9.242;2022-09-09T01:38:31;6.32;;;2.40;;
64623;SDS011;51031;50.912;9.242;2022-09-09T01:38:48;9.10;;;3.53;;
64623;SDS011;51031;50.912;9.242;2022-09-09T01:39:05;7.45;;;1.92;;
64623;SDS011;51031;50.912;9.242;2022-09-09T01:39:22;6.15;;;1.58;;
64623;SDS011;51031;50.912;9.242;2022-09-09T01:39:46;8.27;;;3.00;;
64623;SDS011;51031;50.912;9.242;2022-09-09T01:40:05;8.52;;;3.92;;
64623;SDS011;51031;50.912;9.242;2022-09-09T01:40:24;9.95;;;4.28;;
64623;SDS011;51031;50.912;9.242;2022-09-09T01:40:41;10.98;;;5.38;;
64623;SDS011;51031;50.912;9.242;2022-09-09T01:40:59;11.57;;;6.18;;
64623;SDS011;51031;50.912;9.242;2022-09-09T01:41:24;13.38;;;6.93;;
64623;SDS011;51031;50.912;9.242;2022-09-09T01:42:01;9.13;;;3.97;;
64623;SDS011;51031;50.912;9.242;2022-09-09T01:42:19;11.63;;;5.43;;
64623;SDS011;51031;50.912;9.242;2022-09-09T01:42:35;10.38;;;4.25;;
64623;SDS011;51031;50.912;9.242;2022-09-09T01:42:51;8.68;;;3.10;;
64623;SDS011;51031;50.912;9.242;2022-09-09T01:43:11;12.60;;;6.78;;
64623;SDS011;51031;50.912;9.242;2022-09-09T01:43:27;17.98;;;10.73;;
64623;SDS011;51031;50.912;9.242;2022-09-09T01:43:44;17.27;;;11.00;;
64623;SDS011;51031;50.912;9.242;2022-09-09T01:44:00;19.67;;;13.07;;
64623;SDS011;51031;50.912;9.242;2022-09-09T01:44:19;19.00;;;11.85;;
64623;SDS011;51031;50.912;9.242;2022-09-09T01:44:37;23.25;;;14.48;;
64623;SDS011;51031;50.912;9.242;2022-09-09T01:44:54;30.17;;;20.42;;
64623;SDS011;51031;50.912;9.242;2022-09-09T01:45:10;28.67;;;19.45;;
64623;SDS011;51031;50.912;9.242;2022-09-09T01:45:28;26.20;;;17.15;;
64623;SDS011;51031;50.912;9.242;2022-09-09T01:45:45;21.90;;;13.85;;
64623;SDS011;51031;50.912;9.242;2022-09-09T01:46:03;20.27;;;12.07;;
64623;SDS011;51031;50.912;9.242;2022-09-09T01:46:22;24.95;;;15.60;;
64623;SDS011;51031;50.912;9.242;2022-09-09T01:46:38;27.92;;;18.10;;
64623;SDS011;51031;50.912;9.242;2022-09-09T01:46:59;15.38;;;9.15;;
64623;SDS011;51031;50.912;9.242;2022-09-09T01:47:15;20.33;;;13.00;;
64623;SDS011;51031;50.912;9.242;2022-09-09T01:47:46;19.90;;;12.30;;
64623;SDS011;51031;50.912;9.242;2022-09-09T01:48:18;6.22;;;2.35;;
64623;SDS011;51031;50.912;9.242;2022-09-09T01:48:50;22.00;;;13.65;;
64623;SDS011;51031;50.912;9.242;2022-09-09T01:49:08;13.25;;;7.57;;
64623;SDS011;51031;50.912;9.242;2022-09-09T01:49:25;14.83;;;8.70;;
64623;SDS011;51031;50.912;9.242;2022-09-09T01:49:44;11.05;;;6.07;;
64623;SDS011;51031;50.912;9.242;2022-09-09T01:50:09;4.88;;;1.85;;
64623;SDS011;51031;50.912;9.242;2022-09-09T01:50:28;8.60;;;4.60;;
64623;SDS011;51031;50.912;9.242;2022-09-09T01:50:45;21.75;;;13.75;;
64623;SDS011;51031;50.912;9.242;2022-09-09T01:51:02;24.08;;;15.70;;
64623;SDS011;51031;50.912;9.242;2022-09-09T01:51:18;15.75;;;9.82;;
64623;SDS011;51031;50.912;9.242;2022-09-09T01:51:35;12.80;;;7.10;;
64623;SDS011;51031;50.912;9.242;2022-09-09T01:51:55;25.98;;;17.45;;
64623;SDS011;51031;50.912;9.242;2022-09-09T01:52:17;15.20;;;8.85;;
64623;SDS011;51031;50.912;9.242;2022-09-09T01:52:33;13.57;;;6.57;;
64623;SDS011;51031;50.912;9.242;2022-09-09T01:52:52;11.80;;;5.40;;
64623;SDS011;51031;50.912;9.242;2022-09-09T01:53:20;19.38;;;12.65;;
64623;SDS011;51031;50.912;9.242;2022-09-09T01:53:36;19.02;;;11.70;;
64623;SDS011;51031;50.912;9.242;2022-09-09T01:53:54;15.13;;;8.30;;
64623;SDS011;51031;50.912;9.242;2022-09-09T01:54:11;18.75;;;11.35;;
64623;SDS011;51031;50.912;9.242;2022-09-09T01:54:28;17.55;;;10.07;;
64623;SDS011;51031;50.912;9.242;2022-09-09T01:54:47;14.88;;;7.97;;
64623;SDS011;51031;50.912;9.242;2022-09-09T01:55:07;8.48;;;4.07;;
64623;SDS011;51031;50.912;9.242;2022-09-09T01:55:28;9.40;;;4.43;;
64623;SDS011;51031;50.912;9.242;2022-09-09T01:55:51;8.85;;;2.78;;
64623;SDS011;51031;50.912;9.242;2022-09-09T01:56:18;8.63;;;3.72;;
64623;SDS011;51031;50.912;9.242;2022-09-09T01:56:47;14.85;;;8.15;;
64623;SDS011;51031;50.912;9.242;2022-09-09T01:57:14;27.02;;;17.95;;
64623;SDS011;51031;50.912;9.242;2022-09-09T01:57:37;9.85;;;4.35;;
64623;SDS011;51031;50.912;9.242;2022-09-09T01:58:03;23.70;;;15.88;;
64623;SDS011;51031;50.912;9.242;2022-09-09T01:58:38;21.95;;;14.18;;
64623;SDS011;51031;50.912;9.242;2022-09-09T01:59:08;17.55;;;11.10;;
64623;SDS011;51031;50.912;9.242;2022-09-09T01:59:47;23.48;;;15.20;;
64623;SDS011;51031;50.912;9.242;2022-09-09T02:00:09;19.42;;;11.70;;
64623;SDS011;51031;50.912;9.242;2022-09-09T02:00:32;13.38;;;7.15;;
64623;SDS011;51031;50.912;9.242;2022-09-09T02:00:56;18.92;;;11.35;;
64623;SDS011;51031;50.912;9.242;2022-09-09T02:01:24;7.88;;;3.83;;
64623;SDS011;51031;50.912;9.242;2022-09-09T02:01:52;27.75;;;18.58;;
64623;SDS011;51031;50.912;9.242;2022-09-09T02:02:18;16.35;;;9.63;;
64623;SDS011;51031;50.912;9.242;2022-09-09T02:02:54;10.15;;;5.15;;
64623;SDS011;51031;50.912;9.242;2022-09-09T02:03:25;7.80;;;3.95;;
64623;SDS011;51031;50.912;9.242;2022-09-09T02:03:51;14.07;;;7.85;;
64623;SDS011;51031;50.912;9.242;2022-09-09T02:04:12;11.23;;;5.60;;
64623;SDS011;51031;50.912;9.242;2022-09-09T02:04:40;19.55;;;12.05;;
64623;SDS011;51031;50.912;9.242;2022-09-09T02:05:07;16.30;;;10.02;;
64623;SDS011;51031;50.912;9.242;2022-09-09T02:05:33;21.73;;;13.40;;
64623;SDS011;51031;50.912;9.242;2022-09-09T02:05:55;21.83;;;13.93;;
64623;SDS011;51031;50.912;9.242;2022-09-09T02:06:25;23.95;;;16.17;;
64623;SDS011;51031;50.912;9.242;2022-09-09T02:06:49;22.55;;;13.85;;
64623;SDS011;51031;50.912;9.242;2022-09-09T02:07:19;14.85;;;8.15;;
64623;SDS011;51031;50.912;9.242;2022-09-09T02:07:46;21.27;;;13.60;;
64623;SDS011;51031;50.912;9.242;2022-09-09T02:08:14;20.92;;;13.07;;
64623;SDS011;51031;50.912;9.242;2022-09-09T02:08:45;10.02;;;5.57;;
64623;SDS011;51031;50.912;9.242;2022-09-09T02:09:06;10.13;;;5.25;;
64623;SDS011;51031;50.912;9.242;2022-09-09T02:09:25;12.65;;;6.60;;
64623;SDS011;51031;50.912;9.242;2022-09-09T02:09:47;7.57;;;2.35;;
64623;SDS011;51031;50.912;9.242;2022-09-09T02:10:10;4.97;;;1.52;;
64623;SDS011;51031;50.912;9.242;2022-09-09T02:10:31;9.82;;;4.65;;
64623;SDS011;51031;50.912;9.242;2022-09-09T02:11:07;8.88;;;4.20;;
64623;SDS011;51031;50.912;9.242;2022-09-09T02:11:35;5.45;;;2.05;;
64623;SDS011;51031;50.912;9.242;2022-09-09T02:12:11;10.23;;;5.35;;
64623;SDS011;51031;50.912;9.242;2022-09-09T02:12:37;7.60;;;3.58;;
64623;SDS011;51031;50.912;9.242;2022-09-09T02:12:59;4.82;;;1.50;;
64623;SDS011;51031;50.912;9.242;2022-09-09T02:13:20;5.97;;;2.60;;
64623;SDS011;51031;50.912;9.242;2022-09-09T02:13:37;5.30;;;1.60;;
64623;SDS011;51031;50.912;9.242;2022-09-09T02:13:58;5.75;;;1.67;;
64623;SDS011;51031;50.912;9.242;2022-09-09T02:14:18;5.65;;;2.08;;
64623;SDS011;51031;50.912;9.242;2022-09-09T02:14:40;6.78;;;2.72;;
64623;SDS011;51031;50.912;9.242;2022-09-09T02:15:02;10.80;;;6.30;;
64623;SDS011;51031;50.912;9.242;2022-09-09T02:15:32;10.98;;;5.90;;
64623;SDS011;51031;50.912;9.242;2022-09-09T02:15:52;7.68;;;3.70;;
64623;SDS011;51031;50.912;9.242;2022-09-09T02:16:12;8.07;;;4.05;;
64623;SDS011;51031;50.912;9.242;2022-09-09T02:16:37;9.65;;;4.55;;
64623;SDS011;51031;50.912;9.242;2022-09-09T02:16:56;10.75;;;4.15;;
64623;SDS011;51031;50.912;9.242;2022-09-09T02:17:30;10.88;;;5.82;;
64623;SDS011;51031;50.912;9.242;2022-09-09T02:17:56;7.00;;;3.17;;
64623;SDS011;51031;50.912;9.242;2022-09-09T02:18:17;8.95;;;4.80;;
64623;SDS011;51031;50.912;9.242;2022-09-09T02:18:41;20.67;;;13.43;;
64623;SDS011;51031;50.912;9.242;2022-09-09T02:19:06;15.35;;;9.10;;